createdAt,value
2023-12-17T00:00:09.471Z,10.40
2023-12-17T00:03:18.772Z,10.40
2023-12-17T00:06:22.551Z,10.40
2023-12-17T00:09:24.347Z,10.40
2023-12-17T00:12:26.122Z,10.30
2023-12-17T00:15:27.919Z,10.40
2023-12-17T00:18:29.905Z,10.40
2023-12-17T00:21:31.723Z,10.40
2023-12-17T00:24:33.463Z,10.30
2023-12-17T00:27:35.644Z,10.30
2023-12-17T00:30:37.495Z,10.30
2023-12-17T00:33:39.401Z,10.30
2023-12-17T00:36:41.329Z,10.20
2023-12-17T00:39:43.062Z,10.20
2023-12-17T00:42:45.461Z,10.20
2023-12-17T00:45:47.186Z,10.20
2023-12-17T00:48:48.989Z,10.10
2023-12-17T00:51:50.803Z,10.10
2023-12-17T00:54:52.541Z,10.10
2023-12-17T00:57:54.423Z,10.10
2023-12-17T01:00:56.609Z,10.10
2023-12-17T01:03:58.520Z,10.10
2023-12-17T01:07:00.335Z,10.10
2023-12-17T01:10:02.098Z,10.10
2023-12-17T01:13:03.929Z,10.10
2023-12-17T01:16:06.525Z,10.00
2023-12-17T01:19:08.702Z,10.00
2023-12-17T01:22:10.604Z,10.00
2023-12-17T01:25:12.333Z,10.00
2023-12-17T01:28:14.319Z,10.00
2023-12-17T01:31:16.347Z,10.10
2023-12-17T01:34:21.427Z,10.10
2023-12-17T01:37:23.357Z,10.10
2023-12-17T01:40:25.138Z,10.00
2023-12-17T01:43:26.855Z,10.10
2023-12-17T01:46:28.873Z,10.10
2023-12-17T01:49:30.824Z,10.00
2023-12-17T01:52:32.724Z,10.00
2023-12-17T01:55:34.796Z,10.00
2023-12-17T01:58:36.957Z,10.00
2023-12-17T02:01:38.769Z,10.10
2023-12-17T02:04:40.501Z,10.10
2023-12-17T02:07:43.480Z,10.00
2023-12-17T02:10:45.219Z,10.00
2023-12-17T02:13:46.931Z,10.00
2023-12-17T02:16:48.721Z,10.00
2023-12-17T02:19:50.502Z,10.00
2023-12-17T02:22:53.103Z,10.00
2023-12-17T02:25:54.903Z,10.00
2023-12-17T02:28:56.613Z,10.00
2023-12-17T02:31:58.339Z,10.00
2023-12-17T02:35:00.061Z,10.00
2023-12-17T02:38:02.053Z,10.00
2023-12-17T02:41:03.896Z,10.00
2023-12-17T02:44:05.993Z,10.00
2023-12-17T02:47:08.232Z,10.00
2023-12-17T02:50:10.898Z,10.00
2023-12-17T02:53:12.666Z,10.00
2023-12-17T02:56:14.531Z,10.00
2023-12-17T02:59:16.293Z,9.90
2023-12-17T03:02:18.014Z,10.00
2023-12-17T03:05:19.813Z,9.90
2023-12-17T03:08:22.850Z,10.00
2023-12-17T03:11:24.655Z,9.90
2023-12-17T03:14:26.433Z,9.90
2023-12-17T03:17:28.473Z,9.90
2023-12-17T03:20:30.213Z,9.90
2023-12-17T03:23:32.014Z,9.90
2023-12-17T03:26:34.068Z,9.90
2023-12-17T03:29:36.851Z,9.90
2023-12-17T03:32:38.599Z,9.90
2023-12-17T03:35:40.635Z,9.90
2023-12-17T03:38:46.104Z,9.90
2023-12-17T03:41:47.938Z,9.90
2023-12-17T03:44:49.787Z,9.90
2023-12-17T03:47:51.871Z,9.90
2023-12-17T03:50:53.692Z,9.80
2023-12-17T03:53:55.472Z,9.80
2023-12-17T03:56:58.667Z,9.80
2023-12-17T04:00:01.717Z,9.80
2023-12-17T04:03:03.615Z,9.80
2023-12-17T04:06:06.484Z,9.80
2023-12-17T04:09:08.323Z,9.80
2023-12-17T04:12:10.085Z,9.80
2023-12-17T04:15:11.877Z,9.80
2023-12-17T04:21:15.674Z,9.80
2023-12-17T04:24:17.489Z,9.80
2023-12-17T04:27:19.817Z,9.80
2023-12-17T04:30:21.755Z,9.70
2023-12-17T04:33:23.614Z,9.80
2023-12-17T04:36:26.372Z,9.70
2023-12-17T04:39:28.325Z,9.70
2023-12-17T04:42:33.014Z,9.70
2023-12-17T04:45:36.464Z,9.70
2023-12-17T04:48:38.268Z,9.70
2023-12-17T04:51:40.125Z,9.70
2023-12-17T04:54:41.837Z,9.60
2023-12-17T04:57:44.837Z,9.60
2023-12-17T05:00:46.551Z,9.60
2023-12-17T05:03:48.421Z,9.60
2023-12-17T05:06:50.547Z,9.60
2023-12-17T05:09:53.759Z,9.60
2023-12-17T05:12:55.521Z,9.60
2023-12-17T05:15:57.291Z,9.60
2023-12-17T05:18:59.230Z,9.60
2023-12-17T05:22:01.261Z,9.60
2023-12-17T05:25:03.549Z,9.60
2023-12-17T05:28:06.075Z,9.60
2023-12-17T05:31:07.976Z,9.70
2023-12-17T05:34:12.852Z,9.70
2023-12-17T05:37:14.645Z,9.70
2023-12-17T05:40:16.404Z,9.70
2023-12-17T05:43:18.109Z,9.60
2023-12-17T05:46:19.967Z,9.60
2023-12-17T05:49:21.920Z,9.60
2023-12-17T05:52:23.836Z,9.60
2023-12-17T05:55:25.552Z,9.60
2023-12-17T05:58:27.257Z,9.50
2023-12-17T06:01:29.023Z,9.50
2023-12-17T06:04:30.838Z,9.50
2023-12-17T06:07:32.658Z,9.50
2023-12-17T06:10:34.400Z,9.40
2023-12-17T06:13:36.318Z,9.40
2023-12-17T06:16:43.102Z,9.40
2023-12-17T06:19:45.411Z,9.40
2023-12-17T06:22:47.159Z,9.30
2023-12-17T06:25:49.060Z,9.30
2023-12-17T06:28:50.800Z,9.30
2023-12-17T06:31:52.525Z,9.30
2023-12-17T06:34:54.256Z,9.30
2023-12-17T06:37:56.133Z,9.30
2023-12-17T06:40:58.097Z,9.30
2023-12-17T06:43:59.803Z,9.30
2023-12-17T06:47:04.641Z,9.30
2023-12-17T06:50:11.622Z,9.30
2023-12-17T06:53:18.193Z,9.40
2023-12-17T06:56:20.511Z,9.40
2023-12-17T06:59:22.276Z,9.40
2023-12-17T07:02:24.064Z,9.40
2023-12-17T07:05:25.818Z,9.40
2023-12-17T07:08:27.609Z,9.40
2023-12-17T07:11:29.327Z,9.40
2023-12-17T07:14:31.084Z,9.40
2023-12-17T07:17:33.131Z,9.40
2023-12-17T07:20:34.945Z,9.40
2023-12-17T07:23:36.655Z,9.40
2023-12-17T07:26:38.677Z,9.30
2023-12-17T07:29:40.387Z,9.30
2023-12-17T07:32:42.610Z,9.20
2023-12-17T07:35:44.545Z,9.20
2023-12-17T07:38:46.413Z,9.10
2023-12-17T07:41:48.257Z,9.10
2023-12-17T07:44:50.220Z,9.10
2023-12-17T07:47:52.382Z,9.00
2023-12-17T07:50:55.918Z,9.00
2023-12-17T07:53:57.795Z,8.90
2023-12-17T07:57:00.375Z,8.90
2023-12-17T08:00:02.187Z,8.80
2023-12-17T08:03:04.133Z,8.80
2023-12-17T08:06:06.609Z,8.70
2023-12-17T08:09:08.406Z,8.70
2023-12-17T08:12:10.911Z,8.70
2023-12-17T08:15:13.352Z,8.70
2023-12-17T08:18:16.235Z,8.60
2023-12-17T08:21:18.124Z,8.60
2023-12-17T08:24:19.985Z,8.60
2023-12-17T08:27:22.223Z,8.60
2023-12-17T08:30:24.134Z,8.60
2023-12-17T08:33:26.066Z,8.60
2023-12-17T08:36:29.334Z,8.70
2023-12-17T08:39:31.258Z,8.70
2023-12-17T08:42:33.061Z,8.70
2023-12-17T08:45:35.356Z,8.70
2023-12-17T08:48:37.206Z,8.70
2023-12-17T08:51:39.577Z,8.80
2023-12-17T08:54:41.398Z,8.90
2023-12-17T08:57:43.454Z,8.90
2023-12-17T09:00:45.542Z,8.90
2023-12-17T09:03:47.411Z,9.00
2023-12-17T09:06:49.423Z,9.00
2023-12-17T09:09:51.225Z,9.00
2023-12-17T09:12:52.961Z,9.10
2023-12-17T09:15:55.002Z,9.20
2023-12-17T09:18:56.806Z,9.20
2023-12-17T09:21:58.581Z,9.20
2023-12-17T09:25:00.506Z,9.30
2023-12-17T09:28:03.000Z,9.30
2023-12-17T09:31:09.677Z,9.30
2023-12-17T09:34:12.423Z,9.40
2023-12-17T09:37:14.231Z,9.40
2023-12-17T09:40:17.047Z,9.50
2023-12-17T09:43:21.508Z,9.50
2023-12-17T09:46:23.566Z,9.60
2023-12-17T09:49:25.437Z,9.70
2023-12-17T09:52:29.644Z,9.70
2023-12-17T09:55:31.388Z,9.70
2023-12-17T09:58:33.101Z,9.70
2023-12-17T10:01:34.912Z,9.80
2023-12-17T10:04:36.755Z,9.80
2023-12-17T10:07:39.777Z,9.90
2023-12-17T10:10:41.925Z,10.00
2023-12-17T10:13:43.641Z,10.00
2023-12-17T10:16:45.496Z,10.10
2023-12-17T10:19:52.677Z,10.20
2023-12-17T10:23:01.887Z,10.40
2023-12-17T10:26:04.675Z,10.50
2023-12-17T10:29:06.440Z,10.60
2023-12-17T10:32:09.783Z,10.70
2023-12-17T10:35:11.583Z,10.80
2023-12-17T10:38:13.604Z,10.70
2023-12-17T10:41:15.613Z,10.60
2023-12-17T10:44:17.364Z,10.70
2023-12-17T10:47:28.123Z,10.90
2023-12-17T10:50:29.949Z,11.00
2023-12-17T10:53:31.748Z,11.30
2023-12-17T10:56:39.227Z,11.30
2023-12-17T10:59:41.741Z,11.20
2023-12-17T11:02:44.347Z,11.30
2023-12-17T11:06:00.061Z,11.70
2023-12-17T11:09:01.968Z,12.00
2023-12-17T11:12:06.619Z,11.90
2023-12-17T11:15:08.826Z,11.70
2023-12-17T11:18:10.780Z,11.70
2023-12-17T11:21:12.915Z,11.90
2023-12-17T11:24:14.817Z,12.00
2023-12-17T11:27:20.912Z,12.00
2023-12-17T11:30:33.495Z,11.90
2023-12-17T11:33:35.608Z,11.60
2023-12-17T11:36:37.583Z,11.30
2023-12-17T11:39:41.027Z,11.10
2023-12-17T11:43:01.600Z,10.90
2023-12-17T11:46:03.579Z,10.80
2023-12-17T11:49:05.375Z,10.80
2023-12-17T11:52:15.090Z,10.80
2023-12-17T11:55:16.894Z,10.70
2023-12-17T11:58:23.003Z,10.70
2023-12-17T12:01:25.062Z,10.70
2023-12-17T12:04:29.169Z,10.70
2023-12-17T12:07:31.361Z,10.70
2023-12-17T12:10:33.093Z,10.70
2023-12-17T12:13:38.881Z,10.80
2023-12-17T12:16:42.749Z,10.80
2023-12-17T12:19:50.790Z,10.70
2023-12-17T12:22:52.672Z,10.80
2023-12-17T12:26:01.312Z,10.80
2023-12-17T12:29:07.818Z,10.80
2023-12-17T12:32:10.821Z,10.80
2023-12-17T12:35:24.488Z,10.80
2023-12-17T12:38:26.951Z,10.80
2023-12-17T12:41:29.040Z,10.80
2023-12-17T12:44:30.795Z,10.80
2023-12-17T12:47:32.855Z,10.80
2023-12-17T12:50:34.694Z,10.80
2023-12-17T12:53:36.405Z,10.80
2023-12-17T12:56:38.290Z,10.70
2023-12-17T12:59:40.094Z,10.70
2023-12-17T13:02:42.430Z,10.70
2023-12-17T13:05:44.887Z,10.70
2023-12-17T13:08:46.712Z,10.70
2023-12-17T13:11:50.230Z,10.70
2023-12-17T13:14:52.077Z,10.70
2023-12-17T13:17:56.102Z,10.70
2023-12-17T13:20:58.396Z,10.70
2023-12-17T13:24:00.429Z,10.60
2023-12-17T13:27:03.343Z,10.60
2023-12-17T13:30:06.039Z,10.60
2023-12-17T13:33:08.051Z,10.60
2023-12-17T13:36:11.441Z,10.50
2023-12-17T13:39:13.233Z,10.60
2023-12-17T13:42:15.033Z,10.60
2023-12-17T13:45:16.871Z,10.60
2023-12-17T13:48:19.125Z,10.60
2023-12-17T13:51:21.048Z,10.50
2023-12-17T13:54:23.754Z,10.50
2023-12-17T13:57:25.815Z,10.50
2023-12-17T14:00:28.252Z,10.50
2023-12-17T14:03:31.253Z,10.50
2023-12-17T14:06:33.244Z,10.40
2023-12-17T14:09:35.213Z,10.40
2023-12-17T14:12:37.511Z,10.40
2023-12-17T14:15:39.518Z,10.40
2023-12-17T14:18:41.737Z,10.40
2023-12-17T14:21:46.607Z,10.40
2023-12-17T14:24:49.495Z,10.40
2023-12-17T14:27:51.401Z,10.40
2023-12-17T14:30:53.193Z,10.40
2023-12-17T14:33:55.009Z,10.30
2023-12-17T14:36:57.015Z,10.30
2023-12-17T14:39:59.074Z,10.30
2023-12-17T14:43:02.432Z,10.30
2023-12-17T14:46:04.821Z,10.20
2023-12-17T14:49:06.727Z,10.20
2023-12-17T14:52:08.606Z,10.20
2023-12-17T14:55:10.320Z,10.20
2023-12-17T14:58:14.098Z,10.20
2023-12-17T15:01:21.578Z,10.10
2023-12-17T15:04:31.840Z,10.00
2023-12-17T15:07:33.826Z,10.00
2023-12-17T15:10:36.430Z,10.00
2023-12-17T15:13:38.371Z,10.00
2023-12-17T15:16:41.506Z,9.90
2023-12-17T15:19:43.357Z,9.90
2023-12-17T15:22:46.748Z,9.80
2023-12-17T15:25:48.877Z,9.80
2023-12-17T15:28:53.670Z,9.80
2023-12-17T15:31:55.488Z,9.80
2023-12-17T15:34:57.209Z,9.80
2023-12-17T15:37:58.964Z,9.70
2023-12-17T15:41:01.076Z,9.70
2023-12-17T15:44:02.897Z,9.70
2023-12-17T15:47:04.985Z,9.70
2023-12-17T15:50:10.806Z,9.70
2023-12-17T15:53:12.674Z,9.70
2023-12-17T15:56:15.631Z,9.70
2023-12-17T15:59:18.931Z,9.70
2023-12-17T16:02:21.034Z,9.60
2023-12-17T16:05:22.814Z,9.70
2023-12-17T16:08:24.579Z,9.70
2023-12-17T16:11:26.290Z,9.70
2023-12-17T16:14:29.486Z,9.60
2023-12-17T16:17:32.742Z,9.60
2023-12-17T16:20:35.034Z,9.60
2023-12-17T16:23:37.301Z,9.70
2023-12-17T16:26:39.155Z,9.70
2023-12-17T16:29:42.168Z,9.70
2023-12-17T16:32:44.418Z,9.70
2023-12-17T16:35:47.356Z,9.70
2023-12-17T16:38:49.139Z,9.70
2023-12-17T16:41:50.909Z,9.70
2023-12-17T16:44:52.844Z,9.70
2023-12-17T16:47:54.969Z,9.70
2023-12-17T16:50:56.765Z,9.70
2023-12-17T16:53:58.694Z,9.70
2023-12-17T16:57:00.620Z,9.80
2023-12-17T17:00:03.547Z,9.80
2023-12-17T17:03:05.523Z,9.70
2023-12-17T17:06:07.460Z,9.70
2023-12-17T17:09:10.493Z,9.70
2023-12-17T17:12:12.297Z,9.70
2023-12-17T17:15:14.050Z,9.70
2023-12-17T17:18:16.379Z,9.80
2023-12-17T17:21:18.249Z,9.80
2023-12-17T17:24:20.031Z,9.80
2023-12-17T17:27:22.442Z,9.70
2023-12-17T17:30:24.161Z,9.70
2023-12-17T17:33:26.154Z,9.70
2023-12-17T17:36:28.420Z,9.70
2023-12-17T17:39:30.327Z,9.70
2023-12-17T17:42:32.325Z,9.70
2023-12-17T17:45:34.553Z,9.70
2023-12-17T17:48:37.126Z,9.80
2023-12-17T17:51:39.416Z,9.80
2023-12-17T17:54:42.417Z,9.80
2023-12-17T17:57:44.325Z,9.80
2023-12-17T18:00:46.157Z,9.80
2023-12-17T18:03:48.067Z,9.80
2023-12-17T18:06:49.933Z,9.90
2023-12-17T18:09:51.647Z,9.90
2023-12-17T18:12:53.392Z,9.90
2023-12-17T18:15:57.176Z,9.90
2023-12-17T18:18:59.081Z,9.90
2023-12-17T18:22:00.855Z,9.90
2023-12-17T18:25:04.054Z,9.90
2023-12-17T18:28:07.139Z,9.90
2023-12-17T18:31:09.304Z,9.90
2023-12-17T18:34:11.259Z,9.90
2023-12-17T18:37:14.018Z,9.90
2023-12-17T18:40:15.806Z,9.90
2023-12-17T18:43:17.654Z,9.90
2023-12-17T18:46:20.936Z,10.00
2023-12-17T18:49:22.842Z,10.00
2023-12-17T18:52:24.562Z,10.00
2023-12-17T18:55:26.962Z,10.00
2023-12-17T18:58:28.756Z,10.10
2023-12-17T19:01:32.440Z,10.10
2023-12-17T19:04:34.556Z,10.10
2023-12-17T19:07:37.016Z,10.10
2023-12-17T19:10:38.743Z,10.00
2023-12-17T19:13:40.464Z,10.10
2023-12-17T19:16:42.555Z,10.10
2023-12-17T19:19:44.800Z,10.10
2023-12-17T19:22:46.581Z,10.10
2023-12-17T19:25:48.317Z,10.20
2023-12-17T19:28:50.010Z,10.10
2023-12-17T19:31:51.813Z,10.10
2023-12-17T19:34:53.779Z,10.10
2023-12-17T19:37:55.593Z,10.20
2023-12-17T19:40:57.304Z,10.20
2023-12-17T19:43:59.006Z,10.20
2023-12-17T19:47:02.424Z,10.20
2023-12-17T19:50:05.818Z,10.20
2023-12-17T19:53:07.684Z,10.20
2023-12-17T19:56:16.259Z,10.20
2023-12-17T19:59:18.039Z,10.20
2023-12-17T20:02:21.157Z,10.20
2023-12-17T20:05:22.968Z,10.30
2023-12-17T20:08:26.089Z,10.30
2023-12-17T20:11:27.846Z,10.30
2023-12-17T20:14:29.577Z,10.30
2023-12-17T20:17:31.308Z,10.30
2023-12-17T20:20:34.319Z,10.30
2023-12-17T20:23:37.345Z,10.20
2023-12-17T20:26:39.265Z,10.30
2023-12-17T20:29:41.054Z,10.20
2023-12-17T20:32:43.024Z,10.30
2023-12-17T20:35:44.913Z,10.30
2023-12-17T20:38:46.652Z,10.30
2023-12-17T20:41:48.371Z,10.30
2023-12-17T20:44:50.408Z,10.30
2023-12-17T20:47:53.361Z,10.30
2023-12-17T20:50:55.162Z,10.30
2023-12-17T20:53:57.189Z,10.30
2023-12-17T20:56:59.023Z,10.30
2023-12-17T21:00:00.848Z,10.30
2023-12-17T21:03:02.679Z,10.30
2023-12-17T21:06:04.884Z,10.30
2023-12-17T21:09:10.410Z,10.30
2023-12-17T21:12:12.279Z,10.30
2023-12-17T21:15:14.295Z,10.30
2023-12-17T21:18:16.294Z,10.30
2023-12-17T21:21:18.871Z,10.30
2023-12-17T21:24:20.785Z,10.30
2023-12-17T21:27:26.703Z,10.30
2023-12-17T21:30:28.554Z,10.30
2023-12-17T21:33:30.477Z,10.30
2023-12-17T21:36:32.493Z,10.30
2023-12-17T21:39:34.397Z,10.30
2023-12-17T21:42:36.243Z,10.30
2023-12-17T21:45:38.083Z,10.30
2023-12-17T21:48:40.834Z,10.30
2023-12-17T21:51:42.666Z,10.30
2023-12-17T21:54:44.410Z,10.30
2023-12-17T21:57:46.273Z,10.30
2023-12-17T22:00:48.230Z,10.30
2023-12-17T22:03:50.216Z,10.30
2023-12-17T22:06:52.225Z,10.30
2023-12-17T22:09:53.954Z,10.30
2023-12-17T22:12:55.816Z,10.30
2023-12-17T22:15:57.572Z,10.30
2023-12-17T22:18:59.428Z,10.30
2023-12-17T22:22:01.290Z,10.30
2023-12-17T22:25:03.642Z,10.20
2023-12-17T22:28:06.499Z,10.20
2023-12-17T22:31:08.286Z,10.30
2023-12-17T22:34:10.410Z,10.20
2023-12-17T22:37:12.206Z,10.20
2023-12-17T22:40:14.764Z,10.20
2023-12-17T22:43:16.960Z,10.20
2023-12-17T22:46:21.701Z,10.20
2023-12-17T22:49:23.485Z,10.20
2023-12-17T22:52:25.911Z,10.10
2023-12-17T22:55:27.609Z,10.10
2023-12-17T22:58:29.317Z,10.10
2023-12-17T23:01:31.132Z,10.10
2023-12-17T23:04:32.941Z,10.10
2023-12-17T23:07:35.001Z,10.10
2023-12-17T23:10:36.728Z,10.10
2023-12-17T23:13:38.750Z,10.10
2023-12-17T23:16:40.504Z,10.10
2023-12-17T23:19:42.336Z,10.10
2023-12-17T23:22:44.160Z,10.10
2023-12-17T23:25:45.985Z,10.00
2023-12-17T23:28:47.812Z,10.00
2023-12-17T23:31:49.527Z,10.00
2023-12-17T23:34:51.324Z,10.00
2023-12-17T23:37:53.062Z,10.00
2023-12-17T23:40:54.844Z,10.00
2023-12-17T23:43:56.630Z,10.00
2023-12-17T23:46:58.347Z,10.00
2023-12-17T23:50:00.287Z,10.00
2023-12-17T23:53:02.072Z,10.00
2023-12-17T23:56:04.031Z,10.00
2023-12-17T23:59:05.736Z,9.90
